sensor_id;sensor_type;location;lat;lon;timestamp;P1;durP1;ratioP1;P2;durP2;ratioP2
16760;SDS011;8498;52.516;13.790;2023-01-10T00:03:57;2.80;;;2.10;;
16760;SDS011;8498;52.516;13.790;2023-01-10T00:09:20;1.73;;;1.60;;
16760;SDS011;8498;52.516;13.790;2023-01-10T00:14:42;3.17;;;2.10;;
16760;SDS011;8498;52.516;13.790;2023-01-10T00:20:04;2.70;;;2.40;;
16760;SDS011;8498;52.516;13.790;2023-01-10T00:25:27;3.13;;;2.03;;
16760;SDS011;8498;52.516;13.790;2023-01-10T00:30:50;2.57;;;2.10;;
16760;SDS011;8498;52.516;13.790;2023-01-10T00:36:22;2.50;;;2.13;;
16760;SDS011;8498;52.516;13.790;2023-01-10T00:41:45;6.80;;;2.50;;
16760;SDS011;8498;52.516;13.790;2023-01-10T00:47:26;3.17;;;2.10;;
16760;SDS011;8498;52.516;13.790;2023-01-10T00:52:49;2.40;;;2.20;;
16760;SDS011;8498;52.516;13.790;2023-01-10T00:58:12;3.97;;;2.30;;
16760;SDS011;8498;52.516;13.790;2023-01-10T01:03:35;4.03;;;2.73;;
16760;SDS011;8498;52.516;13.790;2023-01-10T01:08:57;3.10;;;2.80;;
16760;SDS011;8498;52.516;13.790;2023-01-10T01:14:20;4.70;;;2.60;;
16760;SDS011;8498;52.516;13.790;2023-01-10T01:19:42;4.00;;;3.10;;
16760;SDS011;8498;52.516;13.790;2023-01-10T01:25:05;4.40;;;2.73;;
16760;SDS011;8498;52.516;13.790;2023-01-10T01:30:28;4.63;;;2.90;;
16760;SDS011;8498;52.516;13.790;2023-01-10T01:35:50;4.20;;;2.83;;
16760;SDS011;8498;52.516;13.790;2023-01-10T01:41:12;3.33;;;3.03;;
16760;SDS011;8498;52.516;13.790;2023-01-10T01:46:59;5.17;;;3.17;;
16760;SDS011;8498;52.516;13.790;2023-01-10T01:52:27;5.40;;;2.90;;
16760;SDS011;8498;52.516;13.790;2023-01-10T01:57:56;6.23;;;2.77;;
16760;SDS011;8498;52.516;13.790;2023-01-10T02:03:22;5.17;;;2.83;;
16760;SDS011;8498;52.516;13.790;2023-01-10T02:08:46;5.90;;;3.00;;
16760;SDS011;8498;52.516;13.790;2023-01-10T02:14:17;5.37;;;2.93;;
16760;SDS011;8498;52.516;13.790;2023-01-10T02:19:51;4.97;;;2.77;;
16760;SDS011;8498;52.516;13.790;2023-01-10T02:42:35;6.17;;;3.40;;
16760;SDS011;8498;52.516;13.790;2023-01-10T02:48:04;7.87;;;3.70;;
16760;SDS011;8498;52.516;13.790;2023-01-10T02:53:32;6.03;;;3.70;;
16760;SDS011;8498;52.516;13.790;2023-01-10T03:10:43;9.20;;;4.30;;
16760;SDS011;8498;52.516;13.790;2023-01-10T03:16:13;5.23;;;3.50;;
16760;SDS011;8498;52.516;13.790;2023-01-10T03:21:39;6.83;;;3.57;;
16760;SDS011;8498;52.516;13.790;2023-01-10T03:27:06;7.03;;;3.47;;
16760;SDS011;8498;52.516;13.790;2023-01-10T03:32:35;5.33;;;3.20;;
16760;SDS011;8498;52.516;13.790;2023-01-10T03:37:59;7.83;;;3.40;;
16760;SDS011;8498;52.516;13.790;2023-01-10T03:43:41;5.03;;;3.20;;
16760;SDS011;8498;52.516;13.790;2023-01-10T03:49:27;5.57;;;3.10;;
16760;SDS011;8498;52.516;13.790;2023-01-10T03:54:52;3.53;;;2.70;;
16760;SDS011;8498;52.516;13.790;2023-01-10T04:00:15;5.83;;;2.90;;
16760;SDS011;8498;52.516;13.790;2023-01-10T04:05:38;3.17;;;2.50;;
16760;SDS011;8498;52.516;13.790;2023-01-10T04:11:00;8.03;;;3.50;;
16760;SDS011;8498;52.516;13.790;2023-01-10T04:16:22;6.80;;;3.17;;
16760;SDS011;8498;52.516;13.790;2023-01-10T04:21:45;6.23;;;3.10;;
16760;SDS011;8498;52.516;13.790;2023-01-10T04:27:07;5.40;;;2.90;;
16760;SDS011;8498;52.516;13.790;2023-01-10T04:32:30;6.57;;;3.43;;
16760;SDS011;8498;52.516;13.790;2023-01-10T04:37:52;7.83;;;3.40;;
16760;SDS011;8498;52.516;13.790;2023-01-10T04:43:14;6.97;;;3.47;;
16760;SDS011;8498;52.516;13.790;2023-01-10T04:48:36;6.83;;;3.27;;
16760;SDS011;8498;52.516;13.790;2023-01-10T04:53:59;6.47;;;3.20;;
16760;SDS011;8498;52.516;13.790;2023-01-10T04:59:21;7.77;;;4.03;;
16760;SDS011;8498;52.516;13.790;2023-01-10T05:04:44;11.27;;;4.00;;
16760;SDS011;8498;52.516;13.790;2023-01-10T05:10:07;10.73;;;4.47;;
16760;SDS011;8498;52.516;13.790;2023-01-10T05:15:30;6.23;;;3.87;;
16760;SDS011;8498;52.516;13.790;2023-01-10T05:20:52;11.33;;;4.43;;
16760;SDS011;8498;52.516;13.790;2023-01-10T05:26:21;8.90;;;5.10;;
16760;SDS011;8498;52.516;13.790;2023-01-10T05:31:45;10.23;;;5.23;;
16760;SDS011;8498;52.516;13.790;2023-01-10T05:37:07;9.13;;;5.07;;
16760;SDS011;8498;52.516;13.790;2023-01-10T05:42:30;14.30;;;5.57;;
16760;SDS011;8498;52.516;13.790;2023-01-10T05:47:52;15.97;;;5.60;;
16760;SDS011;8498;52.516;13.790;2023-01-10T05:53:14;14.77;;;5.33;;
16760;SDS011;8498;52.516;13.790;2023-01-10T05:58:36;12.13;;;5.63;;
16760;SDS011;8498;52.516;13.790;2023-01-10T06:03:59;13.20;;;5.20;;
16760;SDS011;8498;52.516;13.790;2023-01-10T06:09:21;13.53;;;5.07;;
16760;SDS011;8498;52.516;13.790;2023-01-10T06:14:44;15.63;;;6.00;;
16760;SDS011;8498;52.516;13.790;2023-01-10T06:20:13;14.87;;;5.60;;
16760;SDS011;8498;52.516;13.790;2023-01-10T06:25:37;9.70;;;4.97;;
16760;SDS011;8498;52.516;13.790;2023-01-10T06:31:01;18.27;;;6.63;;
16760;SDS011;8498;52.516;13.790;2023-01-10T06:36:24;21.03;;;5.83;;
16760;SDS011;8498;52.516;13.790;2023-01-10T06:41:46;21.10;;;6.27;;
16760;SDS011;8498;52.516;13.790;2023-01-10T06:47:08;15.17;;;5.40;;
16760;SDS011;8498;52.516;13.790;2023-01-10T06:52:31;17.80;;;6.23;;
16760;SDS011;8498;52.516;13.790;2023-01-10T06:57:56;13.07;;;5.93;;
16760;SDS011;8498;52.516;13.790;2023-01-10T07:03:23;14.97;;;5.70;;
16760;SDS011;8498;52.516;13.790;2023-01-10T07:08:46;16.13;;;5.90;;
16760;SDS011;8498;52.516;13.790;2023-01-10T07:14:09;18.63;;;6.77;;
16760;SDS011;8498;52.516;13.790;2023-01-10T07:19:31;15.40;;;6.27;;
16760;SDS011;8498;52.516;13.790;2023-01-10T07:24:54;10.40;;;5.23;;
16760;SDS011;8498;52.516;13.790;2023-01-10T07:30:16;13.33;;;6.27;;
16760;SDS011;8498;52.516;13.790;2023-01-10T07:35:38;15.77;;;5.80;;
16760;SDS011;8498;52.516;13.790;2023-01-10T07:41:01;17.60;;;5.20;;
16760;SDS011;8498;52.516;13.790;2023-01-10T07:46:24;14.87;;;6.23;;
16760;SDS011;8498;52.516;13.790;2023-01-10T07:51:47;12.40;;;5.80;;
16760;SDS011;8498;52.516;13.790;2023-01-10T07:57:10;14.30;;;6.17;;
16760;SDS011;8498;52.516;13.790;2023-01-10T08:02:32;18.07;;;6.30;;
16760;SDS011;8498;52.516;13.790;2023-01-10T08:07:55;18.73;;;5.80;;
16760;SDS011;8498;52.516;13.790;2023-01-10T08:13:21;14.13;;;5.63;;
16760;SDS011;8498;52.516;13.790;2023-01-10T08:18:43;24.10;;;5.87;;
16760;SDS011;8498;52.516;13.790;2023-01-10T08:24:06;18.23;;;5.80;;
16760;SDS011;8498;52.516;13.790;2023-01-10T08:29:28;13.93;;;5.90;;
16760;SDS011;8498;52.516;13.790;2023-01-10T08:34:51;15.93;;;5.80;;
16760;SDS011;8498;52.516;13.790;2023-01-10T08:40:13;20.33;;;5.80;;
16760;SDS011;8498;52.516;13.790;2023-01-10T08:45:36;17.13;;;6.07;;
16760;SDS011;8498;52.516;13.790;2023-01-10T08:51:03;14.87;;;6.10;;
16760;SDS011;8498;52.516;13.790;2023-01-10T08:56:27;15.20;;;5.63;;
16760;SDS011;8498;52.516;13.790;2023-01-10T09:01:49;20.93;;;6.13;;
16760;SDS011;8498;52.516;13.790;2023-01-10T09:07:11;14.43;;;5.63;;
16760;SDS011;8498;52.516;13.790;2023-01-10T09:12:34;15.07;;;6.40;;
16760;SDS011;8498;52.516;13.790;2023-01-10T09:18:15;16.57;;;6.37;;
16760;SDS011;8498;52.516;13.790;2023-01-10T09:23:37;13.87;;;6.50;;
16760;SDS011;8498;52.516;13.790;2023-01-10T09:29:01;19.77;;;6.50;;
16760;SDS011;8498;52.516;13.790;2023-01-10T09:34:23;14.13;;;6.03;;
16760;SDS011;8498;52.516;13.790;2023-01-10T09:39:45;16.00;;;6.10;;
16760;SDS011;8498;52.516;13.790;2023-01-10T09:50:55;16.93;;;6.00;;
16760;SDS011;8498;52.516;13.790;2023-01-10T09:56:26;12.57;;;6.37;;
16760;SDS011;8498;52.516;13.790;2023-01-10T10:01:56;16.37;;;6.27;;
16760;SDS011;8498;52.516;13.790;2023-01-10T10:07:30;11.47;;;5.30;;
16760;SDS011;8498;52.516;13.790;2023-01-10T10:13:01;18.30;;;5.13;;
16760;SDS011;8498;52.516;13.790;2023-01-10T10:24:38;10.07;;;4.57;;
16760;SDS011;8498;52.516;13.790;2023-01-10T10:36:10;11.53;;;4.70;;
16760;SDS011;8498;52.516;13.790;2023-01-10T10:41:38;12.13;;;4.77;;
16760;SDS011;8498;52.516;13.790;2023-01-10T10:47:05;8.73;;;4.30;;
16760;SDS011;8498;52.516;13.790;2023-01-10T10:52:34;11.63;;;4.17;;
16760;SDS011;8498;52.516;13.790;2023-01-10T10:57:58;8.23;;;4.00;;
16760;SDS011;8498;52.516;13.790;2023-01-10T11:03:30;6.07;;;3.20;;
16760;SDS011;8498;52.516;13.790;2023-01-10T11:09:03;14.63;;;4.20;;
16760;SDS011;8498;52.516;13.790;2023-01-10T11:14:39;10.10;;;3.63;;
16760;SDS011;8498;52.516;13.790;2023-01-10T11:20:12;6.40;;;3.93;;
16760;SDS011;8498;52.516;13.790;2023-01-10T11:25:36;12.67;;;4.77;;
16760;SDS011;8498;52.516;13.790;2023-01-10T11:31:06;11.83;;;4.23;;
16760;SDS011;8498;52.516;13.790;2023-01-10T11:36:29;14.77;;;4.63;;
16760;SDS011;8498;52.516;13.790;2023-01-10T11:53:38;10.60;;;4.50;;
16760;SDS011;8498;52.516;13.790;2023-01-10T11:59:07;13.27;;;4.70;;
16760;SDS011;8498;52.516;13.790;2023-01-10T12:04:33;7.50;;;3.87;;
16760;SDS011;8498;52.516;13.790;2023-01-10T12:10:02;11.83;;;3.40;;
16760;SDS011;8498;52.516;13.790;2023-01-10T12:15:26;7.40;;;3.40;;
16760;SDS011;8498;52.516;13.790;2023-01-10T12:20:51;7.23;;;3.50;;
16760;SDS011;8498;52.516;13.790;2023-01-10T12:26:14;13.87;;;3.67;;
16760;SDS011;8498;52.516;13.790;2023-01-10T12:31:38;7.60;;;4.03;;
16760;SDS011;8498;52.516;13.790;2023-01-10T12:37:11;14.67;;;5.20;;
16760;SDS011;8498;52.516;13.790;2023-01-10T12:54:24;15.97;;;4.07;;
16760;SDS011;8498;52.516;13.790;2023-01-10T12:59:50;7.47;;;3.83;;
16760;SDS011;8498;52.516;13.790;2023-01-10T13:05:17;14.10;;;3.90;;
16760;SDS011;8498;52.516;13.790;2023-01-10T13:10:41;11.70;;;3.30;;
16760;SDS011;8498;52.516;13.790;2023-01-10T13:22:22;11.87;;;3.20;;
16760;SDS011;8498;52.516;13.790;2023-01-10T13:27:45;8.70;;;3.00;;
16760;SDS011;8498;52.516;13.790;2023-01-10T13:33:17;9.57;;;2.70;;
16760;SDS011;8498;52.516;13.790;2023-01-10T13:38:50;12.57;;;3.27;;
16760;SDS011;8498;52.516;13.790;2023-01-10T13:44:15;8.23;;;3.30;;
16760;SDS011;8498;52.516;13.790;2023-01-10T13:49:38;10.83;;;3.33;;
16760;SDS011;8498;52.516;13.790;2023-01-10T13:55:19;8.63;;;3.33;;
16760;SDS011;8498;52.516;13.790;2023-01-10T14:00:47;9.27;;;3.10;;
16760;SDS011;8498;52.516;13.790;2023-01-10T14:06:32;13.53;;;2.40;;
16760;SDS011;8498;52.516;13.790;2023-01-10T14:12:06;4.37;;;2.03;;
16760;SDS011;8498;52.516;13.790;2023-01-10T14:17:39;4.73;;;2.40;;
16760;SDS011;8498;52.516;13.790;2023-01-10T14:28:25;6.50;;;2.43;;
16760;SDS011;8498;52.516;13.790;2023-01-10T14:33:54;9.27;;;2.50;;
16760;SDS011;8498;52.516;13.790;2023-01-10T14:39:19;5.80;;;2.70;;
16760;SDS011;8498;52.516;13.790;2023-01-10T14:44:43;9.80;;;2.60;;
16760;SDS011;8498;52.516;13.790;2023-01-10T14:50:28;6.03;;;2.77;;
16760;SDS011;8498;52.516;13.790;2023-01-10T14:55:53;6.73;;;2.67;;
16760;SDS011;8498;52.516;13.790;2023-01-10T15:01:19;6.90;;;2.97;;
16760;SDS011;8498;52.516;13.790;2023-01-10T15:12:16;9.47;;;4.00;;
16760;SDS011;8498;52.516;13.790;2023-01-10T15:17:41;11.93;;;3.37;;
16760;SDS011;8498;52.516;13.790;2023-01-10T15:23:11;9.27;;;2.93;;
16760;SDS011;8498;52.516;13.790;2023-01-10T15:28:35;7.73;;;3.13;;
16760;SDS011;8498;52.516;13.790;2023-01-10T15:33:59;9.73;;;3.20;;
16760;SDS011;8498;52.516;13.790;2023-01-10T15:39:23;6.03;;;3.00;;
16760;SDS011;8498;52.516;13.790;2023-01-10T15:44:51;6.80;;;2.80;;
16760;SDS011;8498;52.516;13.790;2023-01-10T15:50:18;7.17;;;3.07;;
16760;SDS011;8498;52.516;13.790;2023-01-10T15:55:50;9.40;;;3.73;;
16760;SDS011;8498;52.516;13.790;2023-01-10T16:01:16;9.57;;;3.87;;
16760;SDS011;8498;52.516;13.790;2023-01-10T16:06:39;10.10;;;3.30;;
16760;SDS011;8498;52.516;13.790;2023-01-10T16:12:03;7.67;;;2.80;;
16760;SDS011;8498;52.516;13.790;2023-01-10T16:17:45;10.17;;;3.20;;
16760;SDS011;8498;52.516;13.790;2023-01-10T16:23:12;10.00;;;3.37;;
16760;SDS011;8498;52.516;13.790;2023-01-10T16:28:38;9.57;;;3.40;;
16760;SDS011;8498;52.516;13.790;2023-01-10T16:34:01;7.00;;;3.00;;
16760;SDS011;8498;52.516;13.790;2023-01-10T16:39:23;7.80;;;3.20;;
16760;SDS011;8498;52.516;13.790;2023-01-10T16:44:46;7.43;;;2.80;;
16760;SDS011;8498;52.516;13.790;2023-01-10T16:50:09;7.77;;;2.83;;
16760;SDS011;8498;52.516;13.790;2023-01-10T16:55:36;4.10;;;2.90;;
16760;SDS011;8498;52.516;13.790;2023-01-10T17:01:01;7.67;;;3.40;;
16760;SDS011;8498;52.516;13.790;2023-01-10T17:06:24;5.60;;;3.40;;
16760;SDS011;8498;52.516;13.790;2023-01-10T17:11:57;10.40;;;3.97;;
16760;SDS011;8498;52.516;13.790;2023-01-10T17:17:23;10.80;;;4.07;;
16760;SDS011;8498;52.516;13.790;2023-01-10T17:22:48;8.63;;;3.50;;
16760;SDS011;8498;52.516;13.790;2023-01-10T17:28:11;7.77;;;4.07;;
16760;SDS011;8498;52.516;13.790;2023-01-10T17:33:33;5.47;;;3.37;;
16760;SDS011;8498;52.516;13.790;2023-01-10T17:38:56;12.23;;;4.77;;
16760;SDS011;8498;52.516;13.790;2023-01-10T17:44:19;11.03;;;3.90;;
16760;SDS011;8498;52.516;13.790;2023-01-10T17:49:41;50.87;;;16.47;;
16760;SDS011;8498;52.516;13.790;2023-01-10T17:55:04;16.43;;;5.93;;
16760;SDS011;8498;52.516;13.790;2023-01-10T18:00:28;12.87;;;5.17;;
16760;SDS011;8498;52.516;13.790;2023-01-10T18:05:52;12.07;;;4.03;;
16760;SDS011;8498;52.516;13.790;2023-01-10T18:11:16;10.23;;;3.77;;
16760;SDS011;8498;52.516;13.790;2023-01-10T18:16:38;9.30;;;3.60;;
16760;SDS011;8498;52.516;13.790;2023-01-10T18:22:01;11.93;;;3.90;;
16760;SDS011;8498;52.516;13.790;2023-01-10T18:27:45;6.37;;;3.67;;
16760;SDS011;8498;52.516;13.790;2023-01-10T18:33:12;9.77;;;5.20;;
16760;SDS011;8498;52.516;13.790;2023-01-10T18:38:35;27.67;;;11.97;;
16760;SDS011;8498;52.516;13.790;2023-01-10T18:43:57;13.43;;;5.87;;
16760;SDS011;8498;52.516;13.790;2023-01-10T18:49:21;10.07;;;4.40;;
16760;SDS011;8498;52.516;13.790;2023-01-10T18:54:43;8.87;;;4.40;;
16760;SDS011;8498;52.516;13.790;2023-01-10T19:00:06;10.60;;;4.87;;
16760;SDS011;8498;52.516;13.790;2023-01-10T19:05:29;18.23;;;4.37;;
16760;SDS011;8498;52.516;13.790;2023-01-10T19:10:52;7.17;;;4.73;;
16760;SDS011;8498;52.516;13.790;2023-01-10T19:16:35;16.10;;;4.90;;
16760;SDS011;8498;52.516;13.790;2023-01-10T19:21:57;9.33;;;4.57;;
16760;SDS011;8498;52.516;13.790;2023-01-10T19:27:20;12.30;;;6.10;;
16760;SDS011;8498;52.516;13.790;2023-01-10T19:32:42;13.03;;;6.23;;
16760;SDS011;8498;52.516;13.790;2023-01-10T19:38:05;11.73;;;5.60;;
16760;SDS011;8498;52.516;13.790;2023-01-10T19:43:27;5.80;;;4.47;;
16760;SDS011;8498;52.516;13.790;2023-01-10T19:48:50;8.97;;;3.90;;
16760;SDS011;8498;52.516;13.790;2023-01-10T19:54:13;11.90;;;4.70;;
16760;SDS011;8498;52.516;13.790;2023-01-10T19:59:35;11.20;;;5.27;;
16760;SDS011;8498;52.516;13.790;2023-01-10T20:04:57;10.07;;;5.23;;
16760;SDS011;8498;52.516;13.790;2023-01-10T20:10:19;29.53;;;9.63;;
16760;SDS011;8498;52.516;13.790;2023-01-10T20:15:42;18.57;;;7.03;;
16760;SDS011;8498;52.516;13.790;2023-01-10T20:21:05;20.60;;;7.40;;
16760;SDS011;8498;52.516;13.790;2023-01-10T20:26:29;10.60;;;4.70;;
16760;SDS011;8498;52.516;13.790;2023-01-10T20:31:52;12.73;;;4.70;;
16760;SDS011;8498;52.516;13.790;2023-01-10T20:37:18;11.20;;;3.53;;
16760;SDS011;8498;52.516;13.790;2023-01-10T20:42:40;11.00;;;3.50;;
16760;SDS011;8498;52.516;13.790;2023-01-10T20:48:03;13.03;;;4.07;;
16760;SDS011;8498;52.516;13.790;2023-01-10T20:53:25;6.03;;;3.77;;
16760;SDS011;8498;52.516;13.790;2023-01-10T20:58:48;10.50;;;3.63;;
16760;SDS011;8498;52.516;13.790;2023-01-10T21:04:11;10.20;;;3.50;;
16760;SDS011;8498;52.516;13.790;2023-01-10T21:09:33;11.40;;;3.73;;
16760;SDS011;8498;52.516;13.790;2023-01-10T21:14:55;6.07;;;3.23;;
16760;SDS011;8498;52.516;13.790;2023-01-10T21:20:18;8.93;;;3.60;;
16760;SDS011;8498;52.516;13.790;2023-01-10T21:25:40;13.80;;;3.73;;
16760;SDS011;8498;52.516;13.790;2023-01-10T21:31:03;9.47;;;3.20;;
16760;SDS011;8498;52.516;13.790;2023-01-10T21:36:27;9.87;;;3.30;;
16760;SDS011;8498;52.516;13.790;2023-01-10T21:41:51;10.73;;;4.03;;
16760;SDS011;8498;52.516;13.790;2023-01-10T21:47:33;10.83;;;4.20;;
16760;SDS011;8498;52.516;13.790;2023-01-10T21:52:56;5.70;;;3.40;;
16760;SDS011;8498;52.516;13.790;2023-01-10T21:58:19;6.13;;;3.37;;
16760;SDS011;8498;52.516;13.790;2023-01-10T22:03:43;6.07;;;3.23;;
16760;SDS011;8498;52.516;13.790;2023-01-10T22:09:06;10.43;;;3.40;;
16760;SDS011;8498;52.516;13.790;2023-01-10T22:14:29;7.20;;;3.20;;
16760;SDS011;8498;52.516;13.790;2023-01-10T22:19:52;7.30;;;3.13;;
16760;SDS011;8498;52.516;13.790;2023-01-10T22:25:14;6.17;;;3.00;;
16760;SDS011;8498;52.516;13.790;2023-01-10T22:30:37;13.30;;;3.97;;
16760;SDS011;8498;52.516;13.790;2023-01-10T22:36:03;7.07;;;3.10;;
16760;SDS011;8498;52.516;13.790;2023-01-10T22:41:44;14.40;;;3.27;;
16760;SDS011;8498;52.516;13.790;2023-01-10T22:47:07;4.57;;;2.43;;
16760;SDS011;8498;52.516;13.790;2023-01-10T22:52:29;6.20;;;3.47;;
16760;SDS011;8498;52.516;13.790;2023-01-10T22:57:52;5.80;;;3.10;;
16760;SDS011;8498;52.516;13.790;2023-01-10T23:03:14;13.13;;;2.80;;
16760;SDS011;8498;52.516;13.790;2023-01-10T23:08:37;4.70;;;2.90;;
16760;SDS011;8498;52.516;13.790;2023-01-10T23:14:01;9.80;;;2.60;;
16760;SDS011;8498;52.516;13.790;2023-01-10T23:19:23;4.60;;;2.50;;
16760;SDS011;8498;52.516;13.790;2023-01-10T23:24:46;7.70;;;3.13;;
16760;SDS011;8498;52.516;13.790;2023-01-10T23:30:08;5.50;;;2.40;;
16760;SDS011;8498;52.516;13.790;2023-01-10T23:35:31;3.47;;;2.47;;
16760;SDS011;8498;52.516;13.790;2023-01-10T23:40:54;10.00;;;2.20;;
16760;SDS011;8498;52.516;13.790;2023-01-10T23:46:16;4.67;;;2.60;;
16760;SDS011;8498;52.516;13.790;2023-01-10T23:51:39;13.50;;;2.77;;
16760;SDS011;8498;52.516;13.790;2023-01-10T23:57:02;6.13;;;2.47;;
